createdAt,value
2023-08-12T00:00:57.047Z,72.27
2023-08-12T00:03:43.256Z,71.86
2023-08-12T00:06:29.306Z,71.70
2023-08-12T00:09:16.787Z,72.42
2023-08-12T00:12:02.600Z,72.71
2023-08-12T00:14:47.914Z,73.14
2023-08-12T00:17:33.620Z,71.92
2023-08-12T00:20:19.632Z,71.63
2023-08-12T00:23:05.587Z,71.58
2023-08-12T00:25:51.176Z,71.79
2023-08-12T00:28:36.184Z,71.71
2023-08-12T00:31:21.536Z,72.00
2023-08-12T00:34:06.866Z,71.02
2023-08-12T00:36:52.079Z,71.46
2023-08-12T00:39:38.096Z,71.33
2023-08-12T00:42:23.094Z,71.20
2023-08-12T00:45:14.175Z,70.36
2023-08-12T00:47:59.631Z,71.51
2023-08-12T00:50:46.466Z,70.10
2023-08-12T00:53:31.721Z,70.66
2023-08-12T00:56:18.293Z,71.46
2023-08-12T00:59:08.701Z,70.77
2023-08-12T01:01:54.122Z,71.40
2023-08-12T01:04:39.865Z,71.77
2023-08-12T01:07:24.932Z,71.80
2023-08-12T01:10:15.467Z,70.72
2023-08-12T01:13:31.160Z,70.67
2023-08-12T01:16:19.418Z,71.75
2023-08-12T01:19:08.175Z,72.40
2023-08-12T01:21:55.481Z,73.42
2023-08-12T01:24:45.704Z,72.30
2023-08-12T01:27:31.020Z,70.87
2023-08-12T01:30:17.626Z,70.50
2023-08-12T01:33:09.509Z,70.25
2023-08-12T01:36:02.529Z,71.70
2023-08-12T01:38:48.281Z,72.56
2023-08-12T01:41:33.783Z,71.86
2023-08-12T01:44:19.618Z,71.19
2023-08-12T01:47:05.481Z,71.74
2023-08-12T01:49:50.544Z,72.66
2023-08-12T01:52:36.154Z,73.06
2023-08-12T01:55:21.501Z,72.79
2023-08-12T01:58:06.962Z,71.52
2023-08-12T02:00:52.291Z,72.99
2023-08-12T02:03:37.544Z,73.93
2023-08-12T02:06:23.474Z,74.46
2023-08-12T02:09:08.795Z,74.37
2023-08-12T02:11:54.520Z,75.02
2023-08-12T02:14:39.960Z,76.03
2023-08-12T02:17:25.313Z,75.36
2023-08-12T02:20:11.477Z,75.16
2023-08-12T02:22:56.929Z,76.82
2023-08-12T02:25:41.978Z,75.50
2023-08-12T02:28:27.753Z,75.00
2023-08-12T02:31:13.205Z,75.15
2023-08-12T02:33:58.423Z,75.38
2023-08-12T02:36:44.148Z,76.14
2023-08-12T02:39:29.640Z,76.49
2023-08-12T02:42:15.471Z,76.81
2023-08-12T02:45:01.144Z,76.42
2023-08-12T02:47:47.098Z,76.41
2023-08-12T02:50:32.514Z,77.33
2023-08-12T02:53:18.844Z,76.70
2023-08-12T02:56:04.067Z,77.37
2023-08-12T02:58:49.985Z,76.74
2023-08-12T03:01:35.749Z,74.68
2023-08-12T03:04:21.394Z,75.02
2023-08-12T03:07:06.640Z,76.44
2023-08-12T03:09:52.026Z,76.10
2023-08-12T03:12:37.869Z,76.12
2023-08-12T03:15:23.495Z,75.67
2023-08-12T03:18:08.892Z,76.55
2023-08-12T03:20:54.384Z,77.17
2023-08-12T03:23:40.233Z,76.70
2023-08-12T03:26:25.717Z,76.19
2023-08-12T03:29:11.606Z,74.37
2023-08-12T03:31:57.148Z,73.71
2023-08-12T03:34:42.417Z,74.14
2023-08-12T03:37:28.226Z,74.67
2023-08-12T03:40:13.826Z,74.50
2023-08-12T03:42:59.285Z,74.73
2023-08-12T03:45:45.837Z,76.79
2023-08-12T03:48:31.354Z,77.58
2023-08-12T03:51:17.097Z,77.53
2023-08-12T03:54:02.564Z,77.70
2023-08-12T03:56:47.871Z,77.51
2023-08-12T03:59:33.526Z,77.72
2023-08-12T04:02:18.912Z,77.56
2023-08-12T04:05:04.079Z,77.05
2023-08-12T04:07:50.013Z,76.46
2023-08-12T04:10:35.373Z,77.90
2023-08-12T04:13:21.022Z,77.22
2023-08-12T04:16:06.045Z,75.62
2023-08-12T04:18:51.881Z,73.25
2023-08-12T04:21:37.170Z,73.86
2023-08-12T04:24:22.967Z,73.03
2023-08-12T04:27:08.453Z,73.17
2023-08-12T04:29:53.996Z,72.30
2023-08-12T04:32:39.670Z,71.03
2023-08-12T04:35:24.906Z,73.36
2023-08-12T04:38:10.648Z,73.39
2023-08-12T04:40:56.217Z,74.09
2023-08-12T04:43:41.797Z,74.64
2023-08-12T04:46:26.912Z,76.40
2023-08-12T04:49:11.835Z,76.71
2023-08-12T04:51:56.899Z,76.58
2023-08-12T04:54:42.260Z,74.19
2023-08-12T04:57:27.837Z,72.80
2023-08-12T05:00:13.886Z,74.39
2023-08-12T05:02:59.547Z,74.66
2023-08-12T05:05:45.038Z,74.56
2023-08-12T05:08:30.125Z,76.29
2023-08-12T05:11:15.415Z,73.09
2023-08-12T05:14:00.459Z,75.61
2023-08-12T05:16:45.773Z,77.01
2023-08-12T05:19:31.027Z,76.92
2023-08-12T05:22:17.356Z,76.27
2023-08-12T05:25:03.222Z,77.94
2023-08-12T05:27:48.186Z,79.67
2023-08-12T05:30:33.494Z,77.50
2023-08-12T05:33:18.581Z,78.41
2023-08-12T05:36:04.350Z,78.73
2023-08-12T05:38:49.999Z,77.50
2023-08-12T05:41:35.589Z,78.13
2023-08-12T05:44:20.971Z,78.06
2023-08-12T05:47:06.152Z,75.81
2023-08-12T05:49:51.394Z,78.01
2023-08-12T05:52:36.868Z,76.76
2023-08-12T05:55:22.745Z,79.38
2023-08-12T05:58:08.856Z,78.45
2023-08-12T06:00:54.146Z,81.22
2023-08-12T06:03:39.175Z,80.67
2023-08-12T06:06:24.704Z,79.97
2023-08-12T06:09:10.012Z,78.80
2023-08-12T06:11:55.976Z,77.17
2023-08-12T06:14:41.249Z,79.79
2023-08-12T06:17:26.992Z,80.92
2023-08-12T06:20:13.354Z,82.00
2023-08-12T06:22:58.459Z,75.87
2023-08-12T06:25:44.339Z,80.23
2023-08-12T06:28:29.710Z,80.13
2023-08-12T06:31:15.175Z,76.17
2023-08-12T06:34:00.753Z,76.92
2023-08-12T06:36:46.210Z,80.23
2023-08-12T06:39:31.149Z,78.21
2023-08-12T06:42:16.716Z,78.65
2023-08-12T06:45:05.002Z,74.32
2023-08-12T06:47:50.934Z,76.38
2023-08-12T06:50:36.668Z,76.31
2023-08-12T06:53:21.950Z,76.96
2023-08-12T06:56:07.706Z,74.55
2023-08-12T06:58:53.247Z,76.70
2023-08-12T07:01:38.805Z,75.32
2023-08-12T07:04:24.398Z,74.93
2023-08-12T07:07:09.789Z,77.32
2023-08-12T07:09:55.171Z,79.86
2023-08-12T07:12:40.637Z,79.77
2023-08-12T07:15:26.072Z,80.26
2023-08-12T07:18:11.248Z,80.99
2023-08-12T07:20:56.985Z,77.55
2023-08-12T07:23:51.477Z,79.40
2023-08-12T07:26:47.976Z,80.07
2023-08-12T07:29:32.830Z,77.61
2023-08-12T07:32:19.190Z,81.40
2023-08-12T07:35:04.570Z,82.85
2023-08-12T07:37:52.434Z,82.51
2023-08-12T07:40:39.138Z,83.25
2023-08-12T07:43:26.226Z,83.11
2023-08-12T07:46:11.628Z,82.37
2023-08-12T07:48:57.723Z,81.91
2023-08-12T07:51:43.690Z,83.80
2023-08-12T07:54:29.358Z,82.16
2023-08-12T07:57:14.706Z,82.81
2023-08-12T07:59:59.732Z,83.93
2023-08-12T08:02:45.162Z,83.01
2023-08-12T08:05:30.388Z,82.32
2023-08-12T08:08:15.586Z,84.06
2023-08-12T08:11:00.788Z,83.92
2023-08-12T08:13:46.420Z,81.12
2023-08-12T08:16:32.279Z,80.36
2023-08-12T08:22:05.133Z,80.89
2023-08-12T08:24:50.235Z,81.83
2023-08-12T08:27:35.204Z,82.15
2023-08-12T08:30:20.412Z,82.83
2023-08-12T08:33:06.475Z,82.72
2023-08-12T08:35:52.107Z,82.17
2023-08-12T08:38:38.112Z,81.44
2023-08-12T08:41:25.331Z,82.39
2023-08-12T08:44:10.997Z,81.21
2023-08-12T08:46:56.864Z,81.82
2023-08-12T08:49:43.104Z,81.70
2023-08-12T08:52:29.943Z,81.30
2023-08-12T08:55:15.896Z,82.16
2023-08-12T08:58:03.245Z,82.47
2023-08-12T09:00:51.375Z,81.46
2023-08-12T09:03:39.543Z,81.01
2023-08-12T09:06:27.268Z,80.86
2023-08-12T09:09:17.613Z,81.02
2023-08-12T09:12:05.460Z,81.30
2023-08-12T09:14:50.691Z,80.35
2023-08-12T09:17:36.041Z,81.12
2023-08-12T09:20:21.765Z,80.89
2023-08-12T09:23:10.281Z,79.44
2023-08-12T09:25:55.704Z,80.79
2023-08-12T09:28:43.371Z,80.68
2023-08-12T09:31:32.173Z,81.06
2023-08-12T09:34:18.896Z,79.83
2023-08-12T09:37:04.655Z,80.26
2023-08-12T09:39:51.125Z,80.35
2023-08-12T09:42:36.678Z,79.68
2023-08-12T09:45:25.695Z,79.56
2023-08-12T09:48:11.508Z,78.96
2023-08-12T09:50:57.897Z,78.59
2023-08-12T09:53:43.506Z,78.62
2023-08-12T09:56:33.695Z,78.49
2023-08-12T09:59:24.339Z,77.92
2023-08-12T10:02:33.745Z,77.51
2023-08-12T10:05:27.013Z,76.94
2023-08-12T10:08:15.181Z,77.31
2023-08-12T10:11:12.553Z,77.44
2023-08-12T10:13:58.877Z,77.54
2023-08-12T10:16:47.754Z,76.67
2023-08-12T10:19:34.223Z,77.38
2023-08-12T10:22:27.333Z,78.02
2023-08-12T10:25:15.566Z,77.57
2023-08-12T10:28:01.358Z,77.04
2023-08-12T10:30:47.707Z,76.23
2023-08-12T10:33:40.065Z,77.10
2023-08-12T10:36:28.921Z,73.38
2023-08-12T10:39:27.500Z,74.39
2023-08-12T10:42:49.778Z,71.86
2023-08-12T10:45:50.294Z,70.72
2023-08-12T10:48:35.819Z,68.42
2023-08-12T10:51:40.964Z,69.22
2023-08-12T10:54:34.867Z,68.82
2023-08-12T10:57:36.459Z,65.88
2023-08-12T11:00:25.789Z,67.07
2023-08-12T11:03:13.498Z,67.86
2023-08-12T11:06:00.572Z,69.14
2023-08-12T11:08:53.617Z,70.25
2023-08-12T11:11:59.888Z,70.16
2023-08-12T11:14:55.933Z,71.65
2023-08-12T11:17:42.900Z,70.69
2023-08-12T11:20:29.624Z,70.77
2023-08-12T11:23:15.762Z,69.97
2023-08-12T11:26:02.409Z,70.12
2023-08-12T11:28:48.241Z,70.47
2023-08-12T11:31:35.725Z,70.48
2023-08-12T11:34:23.920Z,70.03
2023-08-12T11:37:09.939Z,70.06
2023-08-12T11:39:55.669Z,67.99
2023-08-12T11:42:42.753Z,67.38
2023-08-12T11:45:33.816Z,65.51
2023-08-12T11:48:19.464Z,66.35
2023-08-12T11:51:05.008Z,61.51
2023-08-12T11:53:50.304Z,62.54
2023-08-12T11:56:35.411Z,60.71
2023-08-12T11:59:23.104Z,58.91
2023-08-12T12:02:08.677Z,59.87
2023-08-12T12:04:54.277Z,59.67
2023-08-12T12:07:40.130Z,59.93
2023-08-12T12:10:33.834Z,56.93
2023-08-12T12:13:21.187Z,55.51
2023-08-12T12:16:12.095Z,57.15
2023-08-12T12:19:00.232Z,55.25
2023-08-12T12:21:47.565Z,55.12
2023-08-12T12:24:45.678Z,54.88
2023-08-12T12:27:32.504Z,54.33
2023-08-12T12:30:18.481Z,55.18
2023-08-12T12:33:03.757Z,56.28
2023-08-12T12:35:57.852Z,55.63
2023-08-12T12:38:44.688Z,55.25
2023-08-12T12:41:31.939Z,55.65
2023-08-12T12:44:18.722Z,58.42
2023-08-12T12:47:04.966Z,58.89
2023-08-12T12:49:53.497Z,59.69
2023-08-12T12:52:38.895Z,60.82
2023-08-12T12:55:24.705Z,61.17
2023-08-12T12:58:12.836Z,61.75
2023-08-12T13:00:58.402Z,61.79
2023-08-12T13:03:45.669Z,60.15
2023-08-12T13:06:31.761Z,57.29
2023-08-12T13:09:16.808Z,55.48
2023-08-12T13:12:02.414Z,53.77
2023-08-12T13:14:48.179Z,53.80
2023-08-12T13:17:33.634Z,53.01
2023-08-12T13:20:20.579Z,53.82
2023-08-12T13:23:06.065Z,55.29
2023-08-12T13:25:54.376Z,54.92
2023-08-12T13:28:39.853Z,55.68
2023-08-12T13:31:27.130Z,55.98
2023-08-12T13:34:11.936Z,55.54
2023-08-12T13:36:57.437Z,56.72
2023-08-12T13:39:42.740Z,57.69
2023-08-12T13:42:28.391Z,57.59
2023-08-12T13:45:14.584Z,57.50
2023-08-12T13:48:00.133Z,56.63
2023-08-12T13:50:46.228Z,56.89
2023-08-12T13:53:34.548Z,58.08
2023-08-12T13:56:22.000Z,57.61
2023-08-12T13:59:07.058Z,59.43
2023-08-12T14:01:52.443Z,58.87
2023-08-12T14:04:38.312Z,59.14
2023-08-12T14:07:26.167Z,59.25
2023-08-12T14:10:11.034Z,61.06
2023-08-12T14:12:56.626Z,61.82
2023-08-12T14:15:42.150Z,61.07
2023-08-12T14:18:28.077Z,60.56
2023-08-12T14:21:13.747Z,58.61
2023-08-12T14:23:59.051Z,57.07
2023-08-12T14:26:44.793Z,56.92
2023-08-12T14:29:31.330Z,56.99
2023-08-12T14:32:17.767Z,58.12
2023-08-12T14:35:03.257Z,57.64
2023-08-12T14:37:49.317Z,57.79
2023-08-12T14:40:35.285Z,56.88
2023-08-12T14:43:21.017Z,58.77
2023-08-12T14:46:06.254Z,59.35
2023-08-12T14:48:54.827Z,59.27
2023-08-12T14:51:40.431Z,60.29
2023-08-12T14:54:25.665Z,60.28
2023-08-12T14:57:11.021Z,60.04
2023-08-12T14:59:56.273Z,59.26
2023-08-12T15:02:42.220Z,59.54
2023-08-12T15:05:27.406Z,59.92
2023-08-12T15:08:16.493Z,59.53
2023-08-12T15:11:02.403Z,58.88
2023-08-12T15:13:47.807Z,58.99
2023-08-12T15:16:33.178Z,57.30
2023-08-12T15:19:20.948Z,56.84
2023-08-12T15:22:06.603Z,54.97
2023-08-12T15:24:53.895Z,53.69
2023-08-12T15:27:40.092Z,54.28
2023-08-12T15:30:25.707Z,52.72
2023-08-12T15:33:10.771Z,52.80
2023-08-12T15:35:56.392Z,53.77
2023-08-12T15:38:42.812Z,52.71
2023-08-12T15:41:28.198Z,53.76
2023-08-12T15:44:14.470Z,53.83
2023-08-12T15:46:59.404Z,55.19
2023-08-12T15:49:45.208Z,56.13
2023-08-12T15:52:33.966Z,56.52
2023-08-12T15:55:19.349Z,57.09
2023-08-12T15:58:05.022Z,57.07
2023-08-12T16:00:50.401Z,57.83
2023-08-12T16:03:36.821Z,57.34
2023-08-12T16:06:22.315Z,57.72
2023-08-12T16:09:18.288Z,58.67
2023-08-12T16:12:04.434Z,58.85
2023-08-12T16:14:49.764Z,57.49
2023-08-12T16:17:35.412Z,58.33
2023-08-12T16:20:20.756Z,58.71
2023-08-12T16:23:06.127Z,58.59
2023-08-12T16:25:51.637Z,59.55
2023-08-12T16:28:37.044Z,60.96
2023-08-12T16:31:23.229Z,62.00
2023-08-12T16:34:09.029Z,62.79
2023-08-12T16:37:10.392Z,62.92
2023-08-12T16:39:59.395Z,62.79
2023-08-12T16:42:44.605Z,63.27
2023-08-12T16:45:30.184Z,63.66
2023-08-12T16:48:15.771Z,64.72
2023-08-12T16:51:00.997Z,65.98
2023-08-12T16:53:46.624Z,65.19
2023-08-12T16:56:31.978Z,65.73
2023-08-12T16:59:17.589Z,65.85
2023-08-12T17:02:03.198Z,65.70
2023-08-12T17:04:48.448Z,66.02
2023-08-12T17:07:34.052Z,65.25
2023-08-12T17:10:19.551Z,65.73
2023-08-12T17:13:04.859Z,66.21
2023-08-12T17:15:50.449Z,66.28
2023-08-12T17:18:36.080Z,66.58
2023-08-12T17:21:21.053Z,66.80
2023-08-12T17:24:06.615Z,66.54
2023-08-12T17:26:53.266Z,66.37
2023-08-12T17:29:38.751Z,66.07
2023-08-12T17:32:26.025Z,66.02
2023-08-12T17:35:12.046Z,65.86
2023-08-12T17:37:57.333Z,65.80
2023-08-12T17:40:43.115Z,66.52
2023-08-12T17:43:28.422Z,67.21
2023-08-12T17:46:14.652Z,67.46
2023-08-12T17:48:59.932Z,68.21
2023-08-12T17:51:46.169Z,68.28
2023-08-12T17:54:31.724Z,68.30
2023-08-12T17:57:17.923Z,68.82
2023-08-12T18:00:03.938Z,69.82
2023-08-12T18:02:52.982Z,70.38
2023-08-12T18:05:39.416Z,70.22
2023-08-12T18:08:27.011Z,70.26
2023-08-12T18:11:12.454Z,70.64
2023-08-12T18:13:57.939Z,71.06
2023-08-12T18:16:43.386Z,71.41
2023-08-12T18:19:29.676Z,71.99
2023-08-12T18:22:15.478Z,71.82
2023-08-12T18:25:01.388Z,72.63
2023-08-12T18:27:47.697Z,72.45
2023-08-12T18:30:33.002Z,72.83
2023-08-12T18:33:18.340Z,71.86
2023-08-12T18:36:04.494Z,73.19
2023-08-12T18:38:53.025Z,72.53
2023-08-12T18:41:39.505Z,73.73
2023-08-12T18:44:24.765Z,73.55
2023-08-12T18:47:12.789Z,73.78
2023-08-12T18:49:58.170Z,74.33
2023-08-12T18:52:45.650Z,74.54
2023-08-12T18:55:33.311Z,74.90
2023-08-12T18:58:21.537Z,76.09
2023-08-12T19:01:06.821Z,76.08
2023-08-12T19:03:54.891Z,76.43
2023-08-12T19:06:40.464Z,79.03
2023-08-12T19:09:27.001Z,81.25
2023-08-12T19:12:14.030Z,83.50
2023-08-12T19:14:59.643Z,84.28
2023-08-12T19:17:46.694Z,84.30
2023-08-12T19:20:32.592Z,85.30
2023-08-12T19:23:21.715Z,85.63
2023-08-12T19:26:07.459Z,86.55
2023-08-12T19:28:52.997Z,87.63
2023-08-12T19:31:41.197Z,87.34
2023-08-12T19:34:26.996Z,84.88
2023-08-12T19:37:12.383Z,86.87
2023-08-12T19:40:00.314Z,86.46
2023-08-12T19:42:47.034Z,85.17
2023-08-12T19:45:33.045Z,86.40
2023-08-12T19:48:18.331Z,85.08
2023-08-12T19:51:04.769Z,86.77
2023-08-12T19:53:50.397Z,83.55
2023-08-12T19:56:39.046Z,84.82
2023-08-12T19:59:26.023Z,84.80
2023-08-12T20:02:36.569Z,85.21
2023-08-12T20:05:27.621Z,85.34
2023-08-12T20:08:13.918Z,84.12
2023-08-12T20:10:59.614Z,86.74
2023-08-12T20:13:45.112Z,86.42
2023-08-12T20:16:35.213Z,85.28
2023-08-12T20:19:21.319Z,83.30
2023-08-12T20:22:06.688Z,82.84
2023-08-12T20:24:52.630Z,83.65
2023-08-12T20:27:37.800Z,83.47
2023-08-12T20:30:23.533Z,84.63
2023-08-12T20:33:11.206Z,85.58
2023-08-12T20:35:56.679Z,84.76
2023-08-12T20:38:43.066Z,86.41
2023-08-12T20:41:29.129Z,85.96
2023-08-12T20:44:16.973Z,85.43
2023-08-12T20:47:09.636Z,84.07
2023-08-12T20:49:56.366Z,85.82
2023-08-12T20:52:43.877Z,86.19
2023-08-12T20:55:30.051Z,85.08
2023-08-12T20:58:15.542Z,83.69
2023-08-12T21:01:01.727Z,86.44
2023-08-12T21:03:47.622Z,87.57
2023-08-12T21:06:33.038Z,86.15
2023-08-12T21:09:24.070Z,87.24
2023-08-12T21:12:16.094Z,85.53
2023-08-12T21:15:02.777Z,87.25
2023-08-12T21:17:49.286Z,89.08
2023-08-12T21:20:44.920Z,86.01
2023-08-12T21:23:32.396Z,90.25
2023-08-12T21:26:17.644Z,85.10
2023-08-12T21:29:04.450Z,86.70
2023-08-12T21:31:50.178Z,85.85
2023-08-12T21:34:35.618Z,86.82
2023-08-12T21:37:20.703Z,87.47
2023-08-12T21:40:07.803Z,86.54
2023-08-12T21:42:53.333Z,87.45
2023-08-12T21:45:38.724Z,86.07
2023-08-12T21:48:24.004Z,82.58
2023-08-12T21:51:10.126Z,81.14
2023-08-12T21:53:55.342Z,83.32
2023-08-12T21:56:40.751Z,81.05
2023-08-12T21:59:27.121Z,79.94
2023-08-12T22:02:12.943Z,78.77
2023-08-12T22:04:58.663Z,78.61
2023-08-12T22:07:44.179Z,78.44
2023-08-12T22:10:29.449Z,81.01
2023-08-12T22:13:14.882Z,79.86
2023-08-12T22:16:00.229Z,80.01
2023-08-12T22:18:45.716Z,79.86
2023-08-12T22:21:31.168Z,78.49
2023-08-12T22:24:16.133Z,79.57
2023-08-12T22:27:01.397Z,79.57
2023-08-12T22:29:46.844Z,80.76
2023-08-12T22:32:32.160Z,84.25
2023-08-12T22:35:19.581Z,86.14
2023-08-12T22:38:04.794Z,85.16
2023-08-12T22:40:50.056Z,86.05
2023-08-12T22:43:35.135Z,87.06
2023-08-12T22:46:20.825Z,88.69
2023-08-12T22:49:05.850Z,88.85
2023-08-12T22:51:51.483Z,88.02
2023-08-12T22:54:36.833Z,86.46
2023-08-12T22:57:22.750Z,84.98
2023-08-12T23:00:08.452Z,86.32
2023-08-12T23:02:53.620Z,85.50
2023-08-12T23:05:38.565Z,88.38
2023-08-12T23:08:24.070Z,86.26
2023-08-12T23:11:09.165Z,83.02
2023-08-12T23:13:54.935Z,81.28
2023-08-12T23:16:40.679Z,80.58
2023-08-12T23:19:26.795Z,84.49
2023-08-12T23:22:12.419Z,83.54
2023-08-12T23:24:58.003Z,82.10
2023-08-12T23:27:46.214Z,81.57
2023-08-12T23:30:31.617Z,86.10
2023-08-12T23:33:16.874Z,85.61
2023-08-12T23:36:01.911Z,87.51
2023-08-12T23:38:47.383Z,90.03
2023-08-12T23:41:33.017Z,91.00
2023-08-12T23:44:18.712Z,86.12
2023-08-12T23:47:04.148Z,85.35
2023-08-12T23:49:50.769Z,85.58
2023-08-12T23:52:37.001Z,85.61
2023-08-12T23:55:22.333Z,84.90
2023-08-12T23:58:07.756Z,84.46
